KCKM

Details ICAO KCKM
Name FLETCHER FLD
Region United States
Timezone America/Chicago (UTC-6.0)
Plans Departing 0
Arriving 1
Stats Elevation 173 ft / 53 m (AMSL)
Location 34.299710° -90.512316°
Runways 1
Magnetic Variation 0.914° W
Sunrise 2017-12-17 13:03:39 UTC / 2017-12-17 07:03:39 Local
Sunset 2017-12-17 22:55:40 UTC / 2017-12-17 16:55:40 Local
Advertisement - Login to hide

Runways

ID Width Length Bearing (true) Bearing (mag) Surface Threshold Offset Overrun Length
18 100 ft / 30 m 5,419 ft / 1,652 m 182.60° 183.51° Asphalt 0 ft / 0 m 0 ft / 0 m
36 100 ft / 30 m 5,419 ft / 1,652 m 2.60° 3.51° Asphalt 0 ft / 0 m 0 ft / 0 m

Map

Weather


0- 5 10 15 20 25 30 35+ Temperature / ° C

Clouds and Precipitation
Forecast for 2017-12-18 00:00 UTC. Updated 20 minutes ago

Ground ~20,000 ft ~40,000 ft Winds

METAR

KCKM 172135Z AUTO 00000KT 5SM BR OVC004 08/08 A3010 RMK A01

TAF

Not found

Frequencies

Recorded 120.67 MHz AWOS 3
Unicom 122.80 MHz CTAF/UNICOM
Warning: Do not use this data for real-world aviation or navigation. No guarantee of current accuracy is given.